Aérodrome :
LOGIN :

S'inscrire | Disclaimer

   EN    FR    IT 

 










Légende :    VFR   VFR Marginal   IFR   IFR Intensif   IFR Très Intensif
Visi : 
Plafond : 
>= 8 km
>= 3000ft
5 à 8 km
1000 à 3000 ft
1500m à 5 km
500 à 1000 ft
800 à 1500m
200 à 500 ft
< 800m
< 200 ft
Symboles :   Orages  Brouillard  Fortes neiges  Fortes précipitations  Vent > 20 kt
SIGMETs :   Divers  Orages  Givrage  Turbulence  Onde Orograph.  Cendres Volcan.







- Altitude de l'aérodrome : 203 ft
- Code IATA : XMJ
- Voir les cartes d'approche


LFBM - Mont-De-Marsan

DERNIER METAR :
  • 171000Z AUTO VRB02KT 7000 OVC003 15/14 Q1018 TEMPO 0800 FG BECMG BKN015

METARs EXPIRÉS :
  • 170930Z AUTO VRB02KT 1700 1200 R27/1900N BR OVC002 14/14 Q1018 BECMG 9999 NSW BKN015
  • 170900Z AUTO 00000KT 0400 0350 R27/0650U FG VV/// 14/13 Q1018 TEMPO 0800 FG BECMG BKN015
  • 170830Z AUTO 00000KT 0450 R27/0650D FG VV/// 13/13 Q1018 TEMPO 0800 FG BECMG BKN015
  • 170800Z AUTO 21002KT 1200 1100 R27/1800U BR OVC002 13/13 Q1018 TEMPO VV/// BECMG 9999 NSW
  • 170730Z AUTO 16002KT 2300 BR OVC002 13/13 Q1018 TEMPO VV/// BECMG 9999 NSW

TAF TAF LFBM
Valide du 17 à 09h jusqu'au 18 à 09h UTC


170800Z 1709/1809 VRB03KT 3000 BR OVC002
TEMPO 1709/1711 0800 FG
BECMG 1710/1712 9999 NSW BKN015
BECMG 1720/1722 3500 BR
Pas de NOTAMs connus pour ce terrain.



MET'MAP, la Météo Aéronautique d'un coup d'oeil ! - Copyright ORBIFLY Décembre 2007 - Disclaimer

ORBIFLY MET'MAP TEAM :

Programmation & Développement : Alexandra Zaïnal
Conception & Développement : Baudouin d'Aumeries
Co-Programmation & Développement : Marc-Olivier Méhu
Soutien technique & logistique : Manuel Goepfert

Contact : metmap@orbifly.com




SOURCES & CREDITS :

   NOAA